createdAt,value
2023-03-28T00:00:19.975Z,2.07
2023-03-28T00:02:46.336Z,2.10
2023-03-28T00:05:12.660Z,2.13
2023-03-28T00:07:39.071Z,2.03
2023-03-28T00:10:05.391Z,2.15
2023-03-28T00:12:31.729Z,2.22
2023-03-28T00:14:58.038Z,2.54
2023-03-28T00:17:24.396Z,2.35
2023-03-28T00:19:50.712Z,2.28
2023-03-28T00:22:17.057Z,2.30
2023-03-28T00:24:43.356Z,2.23
2023-03-28T00:27:09.661Z,2.42
2023-03-28T00:29:35.988Z,2.31
2023-03-28T00:32:02.313Z,2.47
2023-03-28T00:34:28.639Z,2.36
2023-03-28T00:36:54.977Z,2.27
2023-03-28T00:39:21.314Z,2.48
2023-03-28T00:41:47.613Z,2.30
2023-03-28T00:44:13.930Z,2.35
2023-03-28T00:46:40.286Z,2.74
2023-03-28T00:49:06.621Z,2.52
2023-03-28T00:51:32.962Z,2.42
2023-03-28T00:53:59.280Z,2.50
2023-03-28T00:56:25.603Z,2.62
2023-03-28T00:58:51.907Z,2.60
2023-03-28T01:01:18.276Z,2.73
2023-03-28T01:03:44.709Z,2.62
2023-03-28T01:06:11.229Z,2.50
2023-03-28T01:08:37.547Z,2.42
2023-03-28T01:11:03.870Z,2.74
2023-03-28T01:13:30.174Z,3.11
2023-03-28T01:15:56.519Z,3.01
2023-03-28T01:18:22.962Z,2.79
2023-03-28T01:20:49.314Z,2.36
2023-03-28T01:23:15.622Z,2.59
2023-03-28T01:25:41.932Z,2.69
2023-03-28T01:28:08.248Z,2.73
2023-03-28T01:30:34.584Z,2.47
2023-03-28T01:33:00.993Z,2.49
2023-03-28T01:35:27.376Z,2.62
2023-03-28T01:37:53.712Z,2.67
2023-03-28T01:40:20.041Z,2.94
2023-03-28T01:42:46.378Z,2.64
2023-03-28T01:45:12.721Z,2.45
2023-03-28T01:47:39.079Z,2.55
2023-03-28T01:50:05.431Z,2.40
2023-03-28T01:52:31.745Z,2.21
2023-03-28T01:54:58.054Z,2.42
2023-03-28T01:57:24.480Z,2.48
2023-03-28T01:59:50.857Z,2.47
2023-03-28T02:02:17.215Z,2.56
2023-03-28T02:04:43.550Z,2.56
2023-03-28T02:07:09.854Z,4.13
2023-03-28T02:09:36.178Z,6.98
2023-03-28T02:12:02.510Z,5.22
2023-03-28T02:14:28.816Z,2.74
2023-03-28T02:16:55.175Z,2.39
2023-03-28T02:19:21.525Z,2.48
2023-03-28T02:21:47.847Z,2.40
2023-03-28T02:24:14.199Z,2.94
2023-03-28T02:26:40.518Z,5.79
2023-03-28T02:29:06.849Z,9.25
2023-03-28T02:31:33.241Z,11.33
2023-03-28T02:33:59.606Z,8.74
2023-03-28T02:36:25.935Z,8.06
2023-03-28T02:38:52.265Z,5.46
2023-03-28T02:41:18.569Z,4.63
2023-03-28T02:43:44.903Z,3.84
2023-03-28T02:46:11.242Z,3.36
2023-03-28T02:48:37.564Z,3.42
2023-03-28T02:51:03.909Z,2.95
2023-03-28T02:53:30.239Z,3.02
2023-03-28T02:55:56.572Z,2.98
2023-03-28T02:58:22.916Z,3.00
2023-03-28T03:00:49.235Z,3.00
2023-03-28T03:03:15.564Z,3.00
2023-03-28T03:05:41.881Z,2.91
2023-03-28T03:08:08.202Z,2.87
2023-03-28T03:10:34.524Z,2.96
2023-03-28T03:13:00.837Z,2.81
2023-03-28T03:15:27.144Z,3.51
2023-03-28T03:17:53.523Z,3.95
2023-03-28T03:20:19.874Z,3.95
2023-03-28T03:22:46.194Z,4.18
2023-03-28T03:25:14.303Z,3.48
2023-03-28T03:27:41.048Z,2.81
2023-03-28T03:30:07.389Z,2.84
2023-03-28T03:32:33.766Z,2.95
2023-03-28T03:35:00.154Z,3.01
2023-03-28T03:37:26.476Z,2.94
2023-03-28T03:39:52.798Z,2.90
2023-03-28T03:42:19.141Z,2.96
2023-03-28T03:44:45.474Z,3.04
2023-03-28T03:47:11.820Z,3.82
2023-03-28T03:49:38.149Z,3.75
2023-03-28T03:52:04.465Z,2.81
2023-03-28T03:54:30.793Z,2.60
2023-03-28T03:56:57.160Z,2.93
2023-03-28T03:59:23.495Z,2.70
2023-03-28T04:01:49.896Z,2.81
2023-03-28T04:04:16.317Z,2.69
2023-03-28T04:06:42.779Z,2.79
2023-03-28T04:09:09.084Z,2.74
2023-03-28T04:11:35.422Z,2.83
2023-03-28T04:14:01.836Z,2.74
2023-03-28T04:16:28.195Z,2.58
2023-03-28T04:19:07.580Z,2.56
2023-03-28T04:21:33.897Z,2.73
2023-03-28T04:24:00.251Z,2.82
2023-03-28T04:26:26.585Z,2.78
2023-03-28T04:28:52.900Z,2.58
2023-03-28T04:31:19.404Z,2.65
2023-03-28T04:33:45.812Z,2.53
2023-03-28T04:36:12.164Z,2.70
2023-03-28T04:38:38.494Z,2.81
2023-03-28T04:41:04.815Z,2.55
2023-03-28T04:43:31.173Z,2.76
2023-03-28T04:45:57.579Z,3.02
2023-03-28T04:48:23.964Z,2.75
2023-03-28T04:50:50.279Z,3.14
2023-03-28T04:53:16.590Z,3.10
2023-03-28T04:55:42.917Z,2.86
2023-03-28T04:58:09.238Z,3.08
2023-03-28T05:00:35.561Z,3.18
2023-03-28T05:03:01.993Z,3.06
2023-03-28T05:05:28.404Z,3.03
2023-03-28T05:07:54.721Z,3.10
2023-03-28T05:10:21.045Z,2.79
2023-03-28T05:12:47.383Z,2.95
2023-03-28T05:15:21.360Z,3.03
2023-03-28T05:17:49.760Z,3.08
2023-03-28T05:20:16.134Z,2.80
2023-03-28T05:22:42.472Z,2.94
2023-03-28T05:25:08.780Z,3.34
2023-03-28T05:27:35.108Z,3.43
2023-03-28T05:30:01.448Z,3.36
2023-03-28T05:32:28.431Z,3.21
2023-03-28T05:34:54.806Z,3.82
2023-03-28T05:37:21.141Z,4.28
2023-03-28T05:39:47.445Z,3.86
2023-03-28T05:42:13.769Z,3.82
2023-03-28T05:44:40.123Z,3.59
2023-03-28T05:47:06.446Z,3.61
2023-03-28T05:49:32.774Z,3.90
2023-03-28T05:51:59.079Z,3.53
2023-03-28T05:54:25.448Z,3.64
2023-03-28T05:56:51.810Z,3.58
2023-03-28T05:59:18.227Z,4.55
2023-03-28T06:01:44.557Z,4.03
2023-03-28T06:04:10.911Z,3.91
2023-03-28T06:06:37.224Z,3.88
2023-03-28T06:09:03.554Z,3.79
2023-03-28T06:11:29.870Z,3.90
2023-03-28T06:13:56.193Z,4.19
2023-03-28T06:16:30.323Z,4.55
2023-03-28T06:19:10.619Z,4.44
2023-03-28T06:21:43.335Z,4.26
2023-03-28T06:24:09.638Z,4.27
2023-03-28T06:26:35.935Z,4.09
2023-03-28T06:29:02.255Z,4.23
2023-03-28T06:31:28.617Z,4.36
2023-03-28T06:33:54.952Z,4.67
2023-03-28T06:36:21.296Z,5.57
2023-03-28T06:38:47.681Z,5.88
2023-03-28T06:41:14.042Z,5.59
2023-03-28T06:43:42.718Z,5.97
2023-03-28T06:46:09.053Z,5.61
2023-03-28T06:48:36.412Z,5.24
2023-03-28T06:51:03.001Z,5.72
2023-03-28T06:53:29.324Z,5.07
2023-03-28T06:55:55.670Z,4.74
2023-03-28T06:58:21.998Z,4.74
2023-03-28T07:00:48.327Z,4.66
2023-03-28T07:03:14.799Z,4.81
2023-03-28T07:05:41.218Z,4.66
2023-03-28T07:08:07.542Z,4.77
2023-03-28T07:10:33.852Z,4.99
2023-03-28T07:13:00.176Z,5.14
2023-03-28T07:15:26.489Z,5.14
2023-03-28T07:17:52.819Z,4.93
2023-03-28T07:20:19.175Z,5.01
2023-03-28T07:22:45.485Z,5.11
2023-03-28T07:25:11.824Z,4.88
2023-03-28T07:27:38.242Z,5.04
2023-03-28T07:30:04.561Z,4.91
2023-03-28T07:32:35.766Z,5.09
2023-03-28T07:35:05.475Z,4.93
2023-03-28T07:37:31.790Z,4.56
2023-03-28T07:39:58.097Z,4.90
2023-03-28T07:42:24.422Z,5.19
2023-03-28T07:44:50.734Z,4.98
2023-03-28T07:47:17.042Z,5.16
2023-03-28T07:49:43.388Z,5.30
2023-03-28T07:52:09.720Z,5.20
2023-03-28T07:54:36.044Z,5.39
2023-03-28T07:57:02.395Z,5.25
2023-03-28T07:59:28.741Z,5.17
2023-03-28T08:01:55.077Z,5.29
2023-03-28T08:04:21.416Z,5.41
2023-03-28T08:06:47.754Z,5.16
2023-03-28T08:09:14.077Z,5.23
2023-03-28T08:11:40.413Z,5.37
2023-03-28T08:14:06.738Z,5.53
2023-03-28T08:16:33.096Z,5.48
2023-03-28T08:19:10.130Z,5.19
2023-03-28T08:21:37.845Z,5.47
2023-03-28T08:24:04.197Z,5.53
2023-03-28T08:26:30.543Z,5.53
2023-03-28T08:28:56.868Z,5.61
2023-03-28T08:31:23.315Z,5.19
2023-03-28T08:33:49.670Z,5.27
2023-03-28T08:36:16.071Z,5.53
2023-03-28T08:38:42.431Z,5.56
2023-03-28T08:41:08.765Z,4.98
2023-03-28T08:43:35.227Z,5.42
2023-03-28T08:46:01.706Z,5.53
2023-03-28T08:48:28.122Z,5.42
2023-03-28T08:50:54.424Z,5.57
2023-03-28T08:53:20.758Z,5.99
2023-03-28T08:55:47.090Z,5.79
2023-03-28T08:58:13.416Z,5.78
2023-03-28T09:00:39.755Z,5.78
2023-03-28T09:03:06.250Z,5.59
2023-03-28T09:05:32.668Z,5.72
2023-03-28T09:07:58.997Z,5.41
2023-03-28T09:10:25.321Z,5.77
2023-03-28T09:12:51.631Z,5.46
2023-03-28T09:15:17.946Z,5.52
2023-03-28T09:17:44.277Z,5.50
2023-03-28T09:20:10.626Z,5.48
2023-03-28T09:22:36.946Z,5.30
2023-03-28T09:25:03.398Z,4.82
2023-03-28T09:27:29.752Z,4.86
2023-03-28T09:29:56.077Z,4.79
2023-03-28T09:32:22.485Z,5.22
2023-03-28T09:34:48.848Z,5.11
2023-03-28T09:37:15.161Z,4.85
2023-03-28T09:39:41.475Z,4.94
2023-03-28T09:42:07.781Z,5.10
2023-03-28T09:44:43.649Z,5.68
2023-03-28T09:47:17.581Z,5.11
2023-03-28T09:49:43.921Z,5.12
2023-03-28T09:52:10.280Z,4.99
2023-03-28T09:54:36.626Z,5.21
2023-03-28T09:57:02.986Z,5.20
2023-03-28T09:59:29.374Z,4.80
2023-03-28T10:01:55.796Z,4.89
2023-03-28T10:04:22.193Z,4.61
2023-03-28T10:06:48.558Z,4.57
2023-03-28T10:09:14.871Z,4.57
2023-03-28T10:11:41.198Z,4.33
2023-03-28T10:14:07.542Z,4.06
2023-03-28T10:16:33.879Z,4.11
2023-03-28T10:19:00.258Z,4.31
2023-03-28T10:21:26.619Z,4.05
2023-03-28T10:23:52.931Z,4.18
2023-03-28T10:26:19.262Z,4.33
2023-03-28T10:28:45.572Z,4.31
2023-03-28T10:31:11.916Z,4.34
2023-03-28T10:33:38.278Z,4.57
2023-03-28T10:36:04.655Z,4.47
2023-03-28T10:38:30.982Z,4.44
2023-03-28T10:40:57.403Z,4.50
2023-03-28T10:43:23.760Z,4.91
2023-03-28T10:45:50.078Z,4.60
2023-03-28T10:48:16.382Z,4.56
2023-03-28T10:50:42.704Z,4.65
2023-03-28T10:53:09.010Z,4.70
2023-03-28T10:55:35.309Z,5.17
2023-03-28T10:58:01.616Z,5.09
2023-03-28T11:00:27.927Z,4.87
2023-03-28T11:02:54.312Z,4.93
2023-03-28T11:05:20.674Z,4.97
2023-03-28T11:07:46.986Z,4.73
2023-03-28T11:10:13.317Z,4.93
2023-03-28T11:12:51.325Z,5.15
2023-03-28T11:15:20.937Z,5.08
2023-03-28T11:17:47.314Z,5.32
2023-03-28T11:20:13.736Z,5.16
2023-03-28T11:22:40.106Z,5.25
2023-03-28T11:25:06.452Z,5.39
2023-03-28T11:27:32.766Z,5.04
2023-03-28T11:29:59.115Z,5.10
2023-03-28T11:32:25.436Z,5.00
2023-03-28T11:34:51.786Z,5.13
2023-03-28T11:37:18.085Z,5.24
2023-03-28T11:39:44.385Z,5.12
2023-03-28T11:42:10.701Z,4.92
2023-03-28T11:44:37.049Z,5.11
2023-03-28T11:47:03.382Z,5.25
2023-03-28T11:49:29.714Z,5.22
2023-03-28T11:51:56.024Z,5.38
2023-03-28T11:54:22.365Z,5.23
2023-03-28T11:56:48.705Z,5.05
2023-03-28T11:59:15.106Z,5.09
2023-03-28T12:01:41.460Z,4.96
2023-03-28T12:04:07.926Z,5.09
2023-03-28T12:06:34.308Z,5.19
2023-03-28T12:09:00.616Z,5.08
2023-03-28T12:11:27.028Z,5.36
2023-03-28T12:14:05.021Z,5.40
2023-03-28T12:16:35.697Z,5.29
2023-03-28T12:19:02.086Z,5.26
2023-03-28T12:21:28.414Z,5.15
2023-03-28T12:23:54.753Z,5.02
2023-03-28T12:26:21.077Z,5.39
2023-03-28T12:28:47.415Z,5.49
2023-03-28T12:31:13.787Z,5.09
2023-03-28T12:33:40.211Z,5.48
2023-03-28T12:36:06.579Z,5.61
2023-03-28T12:38:32.937Z,5.30
2023-03-28T12:40:59.693Z,5.38
2023-03-28T12:43:26.179Z,5.10
2023-03-28T12:45:52.502Z,5.25
2023-03-28T12:48:18.817Z,5.45
2023-03-28T12:50:45.118Z,5.21
2023-03-28T12:53:11.449Z,5.13
2023-03-28T12:55:37.762Z,5.18
2023-03-28T12:58:04.190Z,5.13
2023-03-28T13:00:30.531Z,5.08
2023-03-28T13:02:56.960Z,5.20
2023-03-28T13:05:23.296Z,5.06
2023-03-28T13:07:50.306Z,5.14
2023-03-28T13:10:16.622Z,5.47
2023-03-28T13:12:42.962Z,5.43
2023-03-28T13:15:09.272Z,5.52
2023-03-28T13:17:35.618Z,5.34
2023-03-28T13:20:01.934Z,5.25
2023-03-28T13:22:28.243Z,5.18
2023-03-28T13:24:55.117Z,5.16
2023-03-28T13:27:21.502Z,5.04
2023-03-28T13:29:47.825Z,5.22
2023-03-28T13:32:14.163Z,5.28
2023-03-28T13:34:40.484Z,5.19
2023-03-28T13:37:06.807Z,5.39
2023-03-28T13:39:33.476Z,5.46
2023-03-28T13:41:59.875Z,5.25
2023-03-28T13:44:26.201Z,5.71
2023-03-28T13:46:52.550Z,5.76
2023-03-28T13:49:19.397Z,5.51
2023-03-28T13:51:45.777Z,5.20
2023-03-28T13:54:12.089Z,5.51
2023-03-28T13:56:38.442Z,5.34
2023-03-28T13:59:04.791Z,5.45
2023-03-28T14:01:31.280Z,5.55
2023-03-28T14:03:57.690Z,5.65
2023-03-28T14:06:24.020Z,5.53
2023-03-28T14:08:50.357Z,5.87
2023-03-28T14:11:16.680Z,4.96
2023-03-28T14:13:42.998Z,5.66
2023-03-28T14:16:09.435Z,5.25
2023-03-28T14:18:35.821Z,5.72
2023-03-28T14:21:02.468Z,5.70
2023-03-28T14:23:29.047Z,5.91
2023-03-28T14:25:55.376Z,5.73
2023-03-28T14:28:21.688Z,5.53
2023-03-28T14:30:48.009Z,5.54
2023-03-28T14:33:14.795Z,5.56
2023-03-28T14:35:41.308Z,5.55
2023-03-28T14:38:07.617Z,5.58
2023-03-28T14:40:33.921Z,5.60
2023-03-28T14:43:00.256Z,5.79
2023-03-28T14:45:26.606Z,5.50
2023-03-28T14:47:52.953Z,5.64
2023-03-28T14:50:19.275Z,5.60
2023-03-28T14:52:45.578Z,5.55
2023-03-28T14:55:11.898Z,5.62
2023-03-28T14:57:38.223Z,5.51
2023-03-28T15:00:04.539Z,5.55
2023-03-28T15:02:30.941Z,5.35
2023-03-28T15:04:57.322Z,5.36
2023-03-28T15:07:23.646Z,5.66
2023-03-28T15:09:49.961Z,5.66
2023-03-28T15:12:16.418Z,5.93
2023-03-28T15:14:42.746Z,5.75
2023-03-28T15:17:09.106Z,5.35
2023-03-28T15:19:35.427Z,5.80
2023-03-28T15:22:01.729Z,5.44
2023-03-28T15:24:28.061Z,5.71
2023-03-28T15:26:54.371Z,5.45
2023-03-28T15:29:20.675Z,5.72
2023-03-28T15:31:46.994Z,5.69
2023-03-28T15:34:13.384Z,5.63
2023-03-28T15:36:39.703Z,5.42
2023-03-28T15:39:06.010Z,5.68
2023-03-28T15:41:32.315Z,5.27
2023-03-28T15:43:58.616Z,4.58
2023-03-28T15:46:24.942Z,4.27
2023-03-28T15:48:51.334Z,4.65
2023-03-28T15:51:17.717Z,4.07
2023-03-28T15:53:44.049Z,4.26
2023-03-28T15:56:10.398Z,4.25
2023-03-28T15:58:36.747Z,4.55
2023-03-28T16:01:03.164Z,3.86
2023-03-28T16:03:29.559Z,3.43
2023-03-28T16:06:01.893Z,3.17
2023-03-28T16:08:35.906Z,3.29
2023-03-28T16:11:04.071Z,3.05
2023-03-28T16:13:32.225Z,3.02
2023-03-28T16:15:58.743Z,3.26
2023-03-28T16:18:25.673Z,3.14
2023-03-28T16:20:51.985Z,2.86
2023-03-28T16:23:18.318Z,3.15
2023-03-28T16:25:44.900Z,3.42
2023-03-28T16:28:11.214Z,3.56
2023-03-28T16:30:37.541Z,3.53
2023-03-28T16:33:04.071Z,3.82
2023-03-28T16:35:30.476Z,3.49
2023-03-28T16:37:56.835Z,3.77
2023-03-28T16:40:23.160Z,3.75
2023-03-28T16:42:49.478Z,3.98
2023-03-28T16:45:15.808Z,3.74
2023-03-28T16:47:42.291Z,3.50
2023-03-28T16:50:08.658Z,3.91
2023-03-28T16:52:35.014Z,3.74
2023-03-28T16:55:01.353Z,3.57
2023-03-28T16:57:27.782Z,3.85
2023-03-28T16:59:54.113Z,3.76
2023-03-28T17:02:20.480Z,3.82
2023-03-28T17:04:46.837Z,4.26
2023-03-28T17:07:13.151Z,3.99
2023-03-28T17:09:39.475Z,4.18
2023-03-28T17:12:05.815Z,3.78
2023-03-28T17:14:32.120Z,4.08
2023-03-28T17:16:58.471Z,4.18
2023-03-28T17:19:24.821Z,4.20
2023-03-28T17:21:51.143Z,4.43
2023-03-28T17:24:17.454Z,4.24
2023-03-28T17:26:43.759Z,4.30
2023-03-28T17:29:10.096Z,4.12
2023-03-28T17:31:36.845Z,4.17
2023-03-28T17:34:03.241Z,4.08
2023-03-28T17:36:29.573Z,3.99
2023-03-28T17:38:55.904Z,3.94
2023-03-28T17:41:22.227Z,4.08
2023-03-28T17:43:48.529Z,4.13
2023-03-28T17:46:14.861Z,4.01
2023-03-28T17:48:41.195Z,4.19
2023-03-28T17:51:07.510Z,3.95
2023-03-28T17:53:33.832Z,4.06
2023-03-28T17:56:00.434Z,4.00
2023-03-28T17:58:27.040Z,4.04
2023-03-28T18:00:53.350Z,4.32
2023-03-28T18:03:19.780Z,4.20
2023-03-28T18:05:46.264Z,5.13
2023-03-28T18:08:12.573Z,8.95
2023-03-28T18:10:38.899Z,6.58
2023-03-28T18:13:05.212Z,5.66
2023-03-28T18:15:31.533Z,5.71
2023-03-28T18:17:57.898Z,6.49
2023-03-28T18:20:25.185Z,6.82
2023-03-28T18:22:51.595Z,5.29
2023-03-28T18:25:17.919Z,5.08
2023-03-28T18:27:44.234Z,5.19
2023-03-28T18:30:10.562Z,4.21
2023-03-28T18:32:36.985Z,4.03
2023-03-28T18:35:03.335Z,3.87
2023-03-28T18:37:29.663Z,3.90
2023-03-28T18:39:56.024Z,4.25
2023-03-28T18:42:22.353Z,4.94
2023-03-28T18:44:48.691Z,5.14
2023-03-28T18:47:15.009Z,5.26
2023-03-28T18:49:41.314Z,4.91
2023-03-28T18:52:07.641Z,5.34
2023-03-28T18:54:33.974Z,5.15
2023-03-28T18:57:00.371Z,5.45
2023-03-28T18:59:26.705Z,5.10
2023-03-28T19:01:53.251Z,5.13
2023-03-28T19:04:19.863Z,4.99
2023-03-28T19:06:46.358Z,5.01
2023-03-28T19:09:12.684Z,5.04
2023-03-28T19:11:39.015Z,4.78
2023-03-28T19:14:05.326Z,5.20
2023-03-28T19:16:31.667Z,5.10
2023-03-28T19:18:57.991Z,4.91
2023-03-28T19:21:24.304Z,4.95
2023-03-28T19:23:50.610Z,5.06
2023-03-28T19:26:16.911Z,4.90
2023-03-28T19:28:43.253Z,4.80
2023-03-28T19:31:09.625Z,4.86
2023-03-28T19:33:36.047Z,5.00
2023-03-28T19:36:02.556Z,5.49
2023-03-28T19:38:29.080Z,4.68
2023-03-28T19:40:55.405Z,4.74
2023-03-28T19:43:21.722Z,4.84
2023-03-28T19:45:48.073Z,4.97
2023-03-28T19:48:14.417Z,5.00
2023-03-28T19:50:40.738Z,4.93
2023-03-28T19:53:07.056Z,4.85
2023-03-28T19:55:33.408Z,5.05
2023-03-28T19:57:59.710Z,4.85
2023-03-28T20:00:26.020Z,5.30
2023-03-28T20:02:52.384Z,5.16
2023-03-28T20:05:18.731Z,5.45
2023-03-28T20:07:45.053Z,5.44
2023-03-28T20:10:11.391Z,6.67
2023-03-28T20:12:37.719Z,6.04
2023-03-28T20:15:04.034Z,5.70
2023-03-28T20:17:30.357Z,5.03
2023-03-28T20:19:56.688Z,5.23
2023-03-28T20:22:23.009Z,5.35
2023-03-28T20:24:49.313Z,5.24
2023-03-28T20:27:15.645Z,5.31
2023-03-28T20:29:41.978Z,5.09
2023-03-28T20:32:09.921Z,5.30
2023-03-28T20:34:36.766Z,5.21
2023-03-28T20:37:03.102Z,5.64
2023-03-28T20:39:29.442Z,5.31
2023-03-28T20:41:55.754Z,5.31
2023-03-28T20:44:22.063Z,5.23
2023-03-28T20:46:48.433Z,5.25
2023-03-28T20:49:14.757Z,5.07
2023-03-28T20:51:41.090Z,4.92
2023-03-28T20:54:07.410Z,5.59
2023-03-28T20:56:33.726Z,5.69
2023-03-28T20:59:00.093Z,5.52
2023-03-28T21:01:26.578Z,4.90
2023-03-28T21:03:52.994Z,5.13
2023-03-28T21:06:19.327Z,4.85
2023-03-28T21:08:45.668Z,4.96
2023-03-28T21:11:11.975Z,5.25
2023-03-28T21:13:38.290Z,5.61
2023-03-28T21:16:04.598Z,5.35
2023-03-28T21:18:30.944Z,5.18
2023-03-28T21:20:57.272Z,5.88
2023-03-28T21:23:23.593Z,5.21
2023-03-28T21:25:49.893Z,5.02
2023-03-28T21:28:16.236Z,4.80
2023-03-28T21:30:42.578Z,4.96
2023-03-28T21:33:08.948Z,4.71
2023-03-28T21:35:35.402Z,4.76
2023-03-28T21:38:01.865Z,4.95
2023-03-28T21:40:28.199Z,5.00
2023-03-28T21:42:54.532Z,5.05
2023-03-28T21:45:20.875Z,5.24
2023-03-28T21:47:47.198Z,5.18
2023-03-28T21:50:14.996Z,5.44
2023-03-28T21:52:41.589Z,5.25
2023-03-28T21:55:07.916Z,5.56
2023-03-28T21:57:34.251Z,5.90
2023-03-28T22:00:00.594Z,5.49
2023-03-28T22:02:26.944Z,5.61
2023-03-28T22:04:53.282Z,5.67
2023-03-28T22:07:19.621Z,5.40
2023-03-28T22:09:45.942Z,5.71
2023-03-28T22:12:12.258Z,5.62
2023-03-28T22:14:38.583Z,5.70
2023-03-28T22:17:04.913Z,5.50
2023-03-28T22:19:31.284Z,5.53
2023-03-28T22:21:57.599Z,5.70
2023-03-28T22:24:23.927Z,5.63
2023-03-28T22:26:50.255Z,5.70
2023-03-28T22:29:16.572Z,5.86
2023-03-28T22:31:42.958Z,5.68
2023-03-28T22:34:09.309Z,5.62
2023-03-28T22:36:35.630Z,5.59
2023-03-28T22:39:01.950Z,5.48
2023-03-28T22:41:28.260Z,5.76
2023-03-28T22:43:54.626Z,5.91
2023-03-28T22:46:21.013Z,6.16
2023-03-28T22:48:47.387Z,5.95
2023-03-28T22:51:13.690Z,5.89
2023-03-28T22:53:40.066Z,6.26
2023-03-28T22:56:06.426Z,6.45
2023-03-28T22:58:32.751Z,6.27
2023-03-28T23:00:59.219Z,6.11
2023-03-28T23:03:25.692Z,6.15
2023-03-28T23:05:52.016Z,5.55
2023-03-28T23:08:18.337Z,5.67
2023-03-28T23:10:44.684Z,5.74
2023-03-28T23:13:11.062Z,6.02
2023-03-28T23:15:37.378Z,6.09
2023-03-28T23:18:03.783Z,5.64
2023-03-28T23:20:30.157Z,5.23
2023-03-28T23:22:56.486Z,4.99
2023-03-28T23:25:22.835Z,4.52
2023-03-28T23:27:49.162Z,4.50
2023-03-28T23:30:15.476Z,4.12
2023-03-28T23:32:41.816Z,4.62
2023-03-28T23:35:08.181Z,5.58
2023-03-28T23:37:34.752Z,6.02
2023-03-28T23:40:01.145Z,5.67
2023-03-28T23:42:27.483Z,6.15
2023-03-28T23:44:53.802Z,6.36
2023-03-28T23:47:20.161Z,6.32
2023-03-28T23:49:46.491Z,6.47
2023-03-28T23:52:12.829Z,5.77
2023-03-28T23:54:39.137Z,5.37
2023-03-28T23:57:05.493Z,4.37
2023-03-28T23:59:31.849Z,4.04
